createdAt,value
2018-03-06T00:01:48.995Z,99354.30
2018-03-06T00:04:16.618Z,99347.55
2018-03-06T00:06:44.231Z,99346.43
2018-03-06T00:09:11.838Z,99346.79
2018-03-06T00:11:39.448Z,99348.99
2018-03-06T00:14:07.057Z,99345.81
2018-03-06T00:16:34.679Z,99349.83
2018-03-06T00:19:02.300Z,99351.67
2018-03-06T00:21:30.682Z,99342.33
2018-03-06T00:23:59.010Z,99344.86
2018-03-06T00:26:27.435Z,99345.52
2018-03-06T00:28:55.014Z,99343.02
2018-03-06T00:31:23.337Z,99342.63
2018-03-06T00:33:51.734Z,99348.73
2018-03-06T00:36:19.341Z,99345.48
2018-03-06T00:38:46.970Z,99340.07
2018-03-06T00:41:15.399Z,99345.42
2018-03-06T00:43:43.051Z,99332.38
2018-03-06T00:46:11.578Z,99334.70
2018-03-06T00:48:39.982Z,99334.48
2018-03-06T00:51:07.598Z,99331.97
2018-03-06T00:53:35.927Z,99336.77
2018-03-06T00:56:04.235Z,99336.34
2018-03-06T00:58:32.535Z,99335.92
2018-03-06T01:01:00.163Z,99336.77
2018-03-06T01:03:27.767Z,99330.16
2018-03-06T01:05:56.172Z,99328.76
2018-03-06T01:08:24.494Z,99327.27
2018-03-06T01:10:52.899Z,99324.08
2018-03-06T01:13:21.226Z,99318.95
2018-03-06T01:15:48.887Z,99317.84
2018-03-06T01:18:16.530Z,99312.52
2018-03-06T01:20:45.077Z,99312.09
2018-03-06T01:23:12.691Z,99316.02
2018-03-06T01:25:40.995Z,99309.22
2018-03-06T01:28:08.598Z,99305.98
2018-03-06T01:30:36.192Z,99298.77
2018-03-06T01:33:03.807Z,99301.20
2018-03-06T01:35:31.410Z,99302.71
2018-03-06T01:37:59.842Z,99303.16
2018-03-06T01:40:28.239Z,99298.41
2018-03-06T01:42:56.035Z,99296.80
2018-03-06T01:45:24.218Z,99285.30
2018-03-06T01:47:52.793Z,99297.38
2018-03-06T01:50:20.402Z,99290.95
2018-03-06T01:52:48.009Z,99287.58
2018-03-06T01:55:16.100Z,99281.80
2018-03-06T01:57:44.567Z,99292.98
2018-03-06T02:00:12.923Z,99284.53
2018-03-06T02:02:40.558Z,99281.38
2018-03-06T02:05:08.930Z,99277.20
2018-03-06T02:07:36.571Z,99279.20
2018-03-06T02:10:04.174Z,99266.81
2018-03-06T02:12:31.786Z,99265.35
2018-03-06T02:15:00.167Z,99260.45
2018-03-06T02:17:28.478Z,99253.41
2018-03-06T02:19:56.079Z,99257.01
2018-03-06T02:22:24.619Z,99252.61
2018-03-06T02:24:52.232Z,99243.02
2018-03-06T02:27:19.889Z,99240.57
2018-03-06T02:29:48.334Z,99234.61
2018-03-06T02:32:16.772Z,99236.17
2018-03-06T02:34:45.226Z,99235.25
2018-03-06T02:37:13.548Z,99231.81
2018-03-06T02:39:41.200Z,99231.95
2018-03-06T02:42:09.511Z,99225.61
2018-03-06T02:44:37.118Z,99233.03
2018-03-06T02:47:05.672Z,99226.00
2018-03-06T02:49:33.326Z,99229.19
2018-03-06T02:52:01.639Z,99220.59
2018-03-06T02:54:29.993Z,99224.37
2018-03-06T02:56:57.612Z,99223.64
2018-03-06T02:59:26.158Z,99221.19
2018-03-06T03:01:54.495Z,99220.86
2018-03-06T03:04:22.842Z,99215.53
2018-03-06T03:06:51.282Z,99226.40
2018-03-06T03:09:20.966Z,99219.98
2018-03-06T03:11:48.578Z,99219.49
2018-03-06T03:14:16.952Z,99220.72
2018-03-06T03:16:44.573Z,99214.78
2018-03-06T03:19:12.175Z,99221.36
2018-03-06T03:21:39.786Z,99221.50
2018-03-06T03:24:07.403Z,99219.66
2018-03-06T03:26:35.051Z,99222.98
2018-03-06T03:29:02.658Z,99217.13
2018-03-06T03:31:30.276Z,99225.21
2018-03-06T03:33:57.883Z,99214.77
2018-03-06T03:36:25.482Z,99224.22
2018-03-06T03:38:53.104Z,99214.97
2018-03-06T03:41:20.714Z,99218.59
2018-03-06T03:43:48.378Z,99216.13
2018-03-06T03:46:15.992Z,99220.86
2018-03-06T03:48:45.431Z,99209.83
2018-03-06T03:51:13.827Z,99213.82
2018-03-06T03:53:41.449Z,99206.59
2018-03-06T03:56:10.970Z,99210.58
2018-03-06T03:58:38.583Z,99210.25
2018-03-06T04:01:06.187Z,99210.64
2018-03-06T04:03:33.798Z,99209.13
2018-03-06T04:06:01.986Z,99202.17
2018-03-06T04:08:29.591Z,99198.08
2018-03-06T04:10:57.210Z,99198.57
2018-03-06T04:13:24.816Z,99197.89
2018-03-06T04:15:52.465Z,99191.31
2018-03-06T04:18:20.086Z,99191.73
2018-03-06T04:20:47.691Z,99188.33
2018-03-06T04:23:15.366Z,99190.45
2018-03-06T04:25:43.014Z,99187.37
2018-03-06T04:28:11.652Z,99181.25
2018-03-06T04:30:39.306Z,99178.07
2018-03-06T04:33:06.915Z,99179.25
2018-03-06T04:35:34.523Z,99173.03
2018-03-06T04:38:02.143Z,99171.00
2018-03-06T04:40:29.793Z,99177.23
2018-03-06T04:42:57.392Z,99176.42
2018-03-06T04:45:25.950Z,99170.89
2018-03-06T04:47:54.379Z,99171.98
2018-03-06T04:50:22.792Z,99176.14
2018-03-06T04:52:51.233Z,99170.29
2018-03-06T04:55:19.617Z,99164.94
2018-03-06T04:57:47.659Z,99168.96
2018-03-06T05:00:15.282Z,99169.51
2018-03-06T05:02:42.919Z,99167.86
2018-03-06T05:05:11.371Z,99169.53
2018-03-06T05:07:39.731Z,99174.23
2018-03-06T05:10:07.346Z,99170.08
2018-03-06T05:12:35.938Z,99164.52
2018-03-06T05:15:04.322Z,99167.52
2018-03-06T05:17:31.943Z,99169.32
2018-03-06T05:19:59.604Z,99171.88
2018-03-06T05:22:27.223Z,99176.84
2018-03-06T05:24:54.863Z,99174.28
2018-03-06T05:27:22.490Z,99163.47
2018-03-06T05:29:50.927Z,99164.63
2018-03-06T05:32:18.588Z,99164.96
2018-03-06T05:34:46.953Z,99164.59
2018-03-06T05:37:15.456Z,99156.09
2018-03-06T05:39:44.318Z,99160.58
2018-03-06T05:42:12.800Z,99153.99
2018-03-06T05:44:41.190Z,99163.01
2018-03-06T05:47:08.875Z,99166.89
2018-03-06T05:49:36.684Z,99164.73
2018-03-06T05:52:04.890Z,99163.42
2018-03-06T05:54:32.618Z,99169.20
2018-03-06T05:57:00.981Z,99171.56
2018-03-06T05:59:28.664Z,99168.80
2018-03-06T06:01:56.312Z,99164.86
2018-03-06T06:04:24.057Z,99161.36
2018-03-06T06:06:52.582Z,99160.59
2018-03-06T06:09:21.115Z,99160.25
2018-03-06T06:11:48.776Z,99156.23
2018-03-06T06:14:16.475Z,99159.42
2018-03-06T06:16:44.179Z,99159.27
2018-03-06T06:19:11.799Z,99159.30
2018-03-06T06:21:40.353Z,99165.98
2018-03-06T06:24:08.751Z,99167.11
2018-03-06T06:26:36.380Z,99164.31
2018-03-06T06:29:03.974Z,99162.30
2018-03-06T06:31:32.513Z,99159.91
2018-03-06T06:34:00.103Z,99162.17
2018-03-06T06:36:27.733Z,99161.73
2018-03-06T06:38:55.332Z,99170.31
2018-03-06T06:41:23.136Z,99164.05
2018-03-06T06:43:50.728Z,99153.04
2018-03-06T06:46:18.320Z,99161.86
2018-03-06T06:48:45.943Z,99161.41
2018-03-06T06:51:13.536Z,99162.75
2018-03-06T06:53:41.130Z,99163.36
2018-03-06T06:56:08.714Z,99159.08
2018-03-06T06:58:37.298Z,99161.77
2018-03-06T07:01:04.887Z,99155.52
2018-03-06T07:03:32.471Z,99158.69
2018-03-06T07:06:00.094Z,99158.12
2018-03-06T07:08:27.719Z,99149.88
2018-03-06T07:10:55.317Z,99152.27
2018-03-06T07:13:22.921Z,99151.19
2018-03-06T07:15:50.505Z,99144.45
2018-03-06T07:18:18.134Z,99146.27
2018-03-06T07:20:45.728Z,99151.30
2018-03-06T07:23:13.350Z,99146.29
2018-03-06T07:25:40.947Z,99151.25
2018-03-06T07:28:08.571Z,99154.47
2018-03-06T07:30:36.154Z,99160.64
2018-03-06T07:33:03.748Z,99156.41
2018-03-06T07:35:31.362Z,99151.25
2018-03-06T07:37:58.949Z,99143.50
2018-03-06T07:40:27.339Z,99156.61
2018-03-06T07:42:55.710Z,99154.24
2018-03-06T07:45:23.341Z,99157.08
2018-03-06T07:47:50.959Z,99160.48
2018-03-06T07:50:18.542Z,99150.80
2018-03-06T07:52:46.135Z,99149.34
2018-03-06T07:55:13.760Z,99162.37
2018-03-06T07:57:41.342Z,99144.34
2018-03-06T08:00:08.979Z,99143.38
2018-03-06T08:02:36.559Z,99146.78
2018-03-06T08:05:04.165Z,99148.53
2018-03-06T08:07:31.759Z,99151.00
2018-03-06T08:09:59.358Z,99141.89
2018-03-06T08:12:26.944Z,99141.99
2018-03-06T08:14:55.499Z,99142.52
2018-03-06T08:17:23.890Z,99137.47
2018-03-06T08:19:52.427Z,99140.15
2018-03-06T08:22:20.806Z,99136.80
2018-03-06T08:24:48.422Z,99132.30
2018-03-06T08:27:16.011Z,99140.88
2018-03-06T08:29:44.340Z,99139.02
2018-03-06T08:32:12.844Z,99132.80
2018-03-06T08:34:40.433Z,99128.22
2018-03-06T08:37:08.959Z,99132.07
2018-03-06T08:39:37.331Z,99136.42
2018-03-06T08:42:04.927Z,99138.52
2018-03-06T08:44:33.370Z,99143.98
2018-03-06T08:47:00.952Z,99140.64
2018-03-06T08:49:28.571Z,99137.05
2018-03-06T08:51:56.155Z,99135.91
2018-03-06T08:54:23.742Z,99136.09
2018-03-06T08:56:51.354Z,99129.93
2018-03-06T08:59:18.932Z,99131.80
2018-03-06T09:01:46.518Z,99127.23
2018-03-06T09:04:14.098Z,99127.20
2018-03-06T09:06:41.710Z,99124.47
2018-03-06T09:09:09.285Z,99123.45
2018-03-06T09:11:36.907Z,99121.02
2018-03-06T09:14:04.494Z,99117.49
2018-03-06T09:16:32.079Z,99112.78
2018-03-06T09:19:00.443Z,99121.62
2018-03-06T09:21:28.026Z,99116.44
2018-03-06T09:23:55.607Z,99117.83
2018-03-06T09:26:23.196Z,99114.84
2018-03-06T09:28:50.783Z,99114.93
2018-03-06T09:31:18.367Z,99114.77
2018-03-06T09:33:45.943Z,99113.08
2018-03-06T09:36:13.523Z,99112.96
2018-03-06T09:38:41.098Z,99101.03
2018-03-06T09:41:08.674Z,99108.56
2018-03-06T09:43:36.247Z,99104.13
2018-03-06T09:46:03.831Z,99102.00
2018-03-06T09:48:31.406Z,99102.36
2018-03-06T09:50:59.894Z,99099.83
2018-03-06T09:53:27.466Z,99095.98
2018-03-06T09:55:55.051Z,99092.44
2018-03-06T09:58:22.631Z,99092.22
2018-03-06T10:00:50.210Z,99085.31
2018-03-06T10:03:17.820Z,99077.44
2018-03-06T10:05:45.394Z,99077.80
2018-03-06T10:08:13.760Z,99074.86
2018-03-06T10:10:41.342Z,99075.23
2018-03-06T10:13:08.918Z,99079.48
2018-03-06T10:15:36.498Z,99073.23
2018-03-06T10:18:04.078Z,99071.62
2018-03-06T10:20:31.698Z,99066.25
2018-03-06T10:22:59.287Z,99065.34
2018-03-06T10:25:26.862Z,99060.86
2018-03-06T10:27:54.463Z,99056.78
2018-03-06T10:30:22.043Z,99057.30
2018-03-06T10:32:49.632Z,99055.69
2018-03-06T10:35:17.228Z,99040.56
2018-03-06T10:37:44.828Z,99045.27
2018-03-06T10:40:12.404Z,99049.44
2018-03-06T10:42:39.988Z,99049.23
2018-03-06T10:45:07.560Z,99044.56
2018-03-06T10:47:35.142Z,99046.05
2018-03-06T10:50:02.723Z,99042.93
2018-03-06T10:52:30.307Z,99042.44
2018-03-06T10:54:57.892Z,99046.94
2018-03-06T10:57:25.463Z,99036.09
2018-03-06T10:59:53.041Z,99039.30
2018-03-06T11:02:20.618Z,99034.05
2018-03-06T11:04:48.194Z,99033.00
2018-03-06T11:07:15.778Z,99027.41
2018-03-06T11:09:43.362Z,99031.95
2018-03-06T11:12:10.943Z,99029.27
2018-03-06T11:14:38.553Z,99026.09
2018-03-06T11:17:06.148Z,99021.77
2018-03-06T11:19:33.731Z,99023.84
2018-03-06T11:22:01.311Z,99023.38
2018-03-06T11:24:28.923Z,99016.58
2018-03-06T11:26:56.499Z,99019.35
2018-03-06T11:29:24.106Z,99005.97
2018-03-06T11:31:51.688Z,99011.65
2018-03-06T11:34:19.307Z,99006.62
2018-03-06T11:36:46.887Z,99003.88
2018-03-06T11:39:14.475Z,98991.56
2018-03-06T11:41:42.055Z,99001.83
2018-03-06T11:44:09.640Z,98988.81
2018-03-06T11:46:37.224Z,98989.31
2018-03-06T11:49:04.811Z,98987.17
2018-03-06T11:51:32.390Z,98989.27
2018-03-06T11:53:59.972Z,98987.03
2018-03-06T11:56:27.560Z,98990.53
2018-03-06T11:58:55.191Z,98987.45
2018-03-06T12:01:22.807Z,98979.80
2018-03-06T12:03:50.383Z,98978.70
2018-03-06T12:06:17.962Z,98978.27
2018-03-06T12:08:45.543Z,98976.35
2018-03-06T12:11:13.122Z,98975.25
2018-03-06T12:13:40.722Z,98976.64
2018-03-06T12:16:08.304Z,98969.35
2018-03-06T12:18:35.924Z,98964.04
2018-03-06T12:21:03.492Z,98962.65
2018-03-06T12:23:31.076Z,98947.17
2018-03-06T12:25:58.651Z,98952.69
2018-03-06T12:28:26.227Z,98952.38
2018-03-06T12:30:53.805Z,98952.63
2018-03-06T12:33:21.390Z,98948.66
2018-03-06T12:35:48.974Z,98949.77
2018-03-06T12:38:17.463Z,98948.31
2018-03-06T12:40:45.040Z,98946.31
2018-03-06T12:43:12.615Z,98944.11
2018-03-06T12:45:40.202Z,98940.30
2018-03-06T12:48:07.788Z,98945.12
2018-03-06T12:50:35.372Z,98936.70
2018-03-06T12:53:03.735Z,98940.70
2018-03-06T12:55:31.324Z,98931.02
2018-03-06T12:57:58.898Z,98933.11
2018-03-06T13:00:26.478Z,98926.65
2018-03-06T13:02:54.058Z,98922.45
2018-03-06T13:05:21.637Z,98920.98
2018-03-06T13:07:49.218Z,98915.46
2018-03-06T13:10:16.799Z,98922.95
2018-03-06T13:12:44.414Z,98925.73
2018-03-06T13:15:12.769Z,98921.39
2018-03-06T13:17:40.348Z,98924.05
2018-03-06T13:20:07.930Z,98920.61
2018-03-06T13:22:35.547Z,98928.07
2018-03-06T13:25:03.139Z,98916.91
2018-03-06T13:27:30.718Z,98913.75
2018-03-06T13:29:58.309Z,98919.56
2018-03-06T13:32:25.894Z,98913.48
2018-03-06T13:34:53.483Z,98909.31
2018-03-06T13:37:21.108Z,98905.83
2018-03-06T13:39:48.709Z,98906.37
2018-03-06T13:42:16.307Z,98908.09
2018-03-06T13:44:44.779Z,98904.95
2018-03-06T13:47:12.359Z,98917.02
2018-03-06T13:49:39.949Z,98912.16
2018-03-06T13:52:07.535Z,98907.42
2018-03-06T13:54:35.149Z,98913.99
2018-03-06T13:57:02.734Z,98912.02
2018-03-06T13:59:30.469Z,98913.84
2018-03-06T14:01:58.054Z,98914.19
2018-03-06T14:04:25.643Z,98910.35
2018-03-06T14:06:53.220Z,98915.67
2018-03-06T14:09:20.799Z,98899.89
2018-03-06T14:11:48.385Z,98904.63
2018-03-06T14:14:15.959Z,98909.23
2018-03-06T14:16:43.539Z,98906.09
2018-03-06T14:19:11.124Z,98905.14
2018-03-06T14:21:38.715Z,98902.06
2018-03-06T14:24:06.298Z,98893.67
2018-03-06T14:26:33.886Z,98899.84
2018-03-06T14:29:01.467Z,98901.29
2018-03-06T14:31:29.087Z,98899.97
2018-03-06T14:33:56.666Z,98899.53
2018-03-06T14:36:24.252Z,98896.11
2018-03-06T14:38:51.831Z,98898.90
2018-03-06T14:41:19.452Z,98895.03
2018-03-06T14:43:47.046Z,98891.39
2018-03-06T14:46:14.623Z,98889.16
2018-03-06T14:48:42.210Z,98887.00
2018-03-06T14:51:09.815Z,98890.84
2018-03-06T14:53:38.195Z,98890.45
2018-03-06T14:56:05.774Z,98894.33
2018-03-06T14:58:33.380Z,98899.03
2018-03-06T15:01:01.756Z,98898.13
2018-03-06T15:03:29.338Z,98900.71
2018-03-06T15:05:56.923Z,98905.61
2018-03-06T15:08:24.511Z,98909.26
2018-03-06T15:10:52.095Z,98905.58
2018-03-06T15:13:19.692Z,98912.64
2018-03-06T15:15:47.275Z,98909.03
2018-03-06T15:18:14.850Z,98903.80
2018-03-06T15:20:42.427Z,98909.66
2018-03-06T15:23:10.012Z,98916.47
2018-03-06T15:25:37.595Z,98919.84
2018-03-06T15:28:05.892Z,98916.55
2018-03-06T15:30:33.487Z,98918.09
2018-03-06T15:33:02.031Z,98923.72
2018-03-06T15:35:30.343Z,98921.58
2018-03-06T15:37:57.919Z,98926.77
2018-03-06T15:40:25.535Z,98930.64
2018-03-06T15:42:53.126Z,98926.34
2018-03-06T15:45:20.710Z,98935.95
2018-03-06T15:47:48.294Z,98929.19
2018-03-06T15:50:16.906Z,98931.22
2018-03-06T15:52:44.527Z,98941.53
2018-03-06T15:55:12.112Z,98934.88
2018-03-06T15:57:39.695Z,98933.84
2018-03-06T16:00:08.195Z,98925.11
2018-03-06T16:02:35.908Z,98935.56
2018-03-06T16:05:04.199Z,98936.63
2018-03-06T16:07:31.779Z,98934.75
2018-03-06T16:09:59.410Z,98936.69
2018-03-06T16:12:27.004Z,98938.66
2018-03-06T16:14:54.587Z,98935.63
2018-03-06T16:17:22.171Z,98941.87
2018-03-06T16:19:52.007Z,98939.32
2018-03-06T16:22:22.492Z,98942.02
2018-03-06T16:24:52.993Z,98948.85
2018-03-06T16:27:23.523Z,98943.70
2018-03-06T16:29:52.161Z,98944.53
2018-03-06T16:32:19.815Z,98950.03
2018-03-06T16:34:47.418Z,98949.08
2018-03-06T16:37:15.003Z,98955.10
2018-03-06T16:39:43.512Z,98953.36
2018-03-06T16:42:11.912Z,98954.03
2018-03-06T16:44:40.510Z,98960.38
2018-03-06T16:47:08.135Z,98965.22
2018-03-06T16:49:35.717Z,98957.61
2018-03-06T16:52:03.303Z,98954.88
2018-03-06T16:54:30.916Z,98960.63
2018-03-06T16:56:58.554Z,98962.27
2018-03-06T16:59:26.235Z,98959.42
2018-03-06T17:01:53.967Z,98961.06
2018-03-06T17:04:21.566Z,98969.24
2018-03-06T17:06:49.179Z,98958.52
2018-03-06T17:09:16.765Z,98959.34
2018-03-06T17:11:44.447Z,98966.47
2018-03-06T17:14:12.026Z,98970.78
2018-03-06T17:16:39.608Z,98969.70
2018-03-06T17:19:07.195Z,98967.98
2018-03-06T17:21:34.779Z,98963.86
2018-03-06T17:24:02.376Z,98966.59
2018-03-06T17:26:29.961Z,98958.92
2018-03-06T17:28:57.558Z,98966.40
2018-03-06T17:31:25.955Z,98966.13
2018-03-06T17:33:54.453Z,98965.22
2018-03-06T17:36:23.109Z,98969.58
2018-03-06T17:38:50.708Z,98965.70
2018-03-06T17:41:19.298Z,98962.05
2018-03-06T17:43:46.968Z,98963.52
2018-03-06T17:46:14.556Z,98963.09
2018-03-06T17:48:42.439Z,98956.23
2018-03-06T17:51:10.089Z,98955.30
2018-03-06T17:53:38.271Z,98955.71
2018-03-06T17:56:05.850Z,98949.65
2018-03-06T17:58:33.435Z,98954.27
2018-03-06T18:01:01.278Z,98959.39
2018-03-06T18:03:29.790Z,98954.38
2018-03-06T18:05:57.494Z,98956.16
2018-03-06T18:08:25.163Z,98956.47
2018-03-06T18:10:52.755Z,98952.45
2018-03-06T18:13:20.390Z,98953.55
2018-03-06T18:15:48.035Z,98949.98
2018-03-06T18:18:19.409Z,98949.72
2018-03-06T18:20:47.170Z,98946.88
2018-03-06T18:23:14.760Z,98951.42
2018-03-06T18:25:42.911Z,98949.53
2018-03-06T18:28:10.640Z,98944.27
2018-03-06T18:30:38.230Z,98944.42
2018-03-06T18:33:05.819Z,98941.16
2018-03-06T18:35:34.104Z,98933.02
2018-03-06T18:38:03.634Z,98936.27
2018-03-06T18:40:31.300Z,98934.06
2018-03-06T18:42:58.947Z,98935.66
2018-03-06T18:45:27.468Z,98935.97
2018-03-06T18:47:55.080Z,98932.67
2018-03-06T18:50:34.910Z,98926.79
2018-03-06T18:53:02.507Z,98933.61
2018-03-06T18:55:30.998Z,98927.36
2018-03-06T18:57:58.591Z,98927.09
2018-03-06T19:03:46.007Z,98921.86
2018-03-06T19:06:22.387Z,98922.15
2018-03-06T19:08:49.975Z,98918.83
2018-03-06T19:11:17.578Z,98920.42
2018-03-06T19:13:45.176Z,98921.63
2018-03-06T19:16:13.562Z,98919.78
2018-03-06T19:18:41.136Z,98919.48
2018-03-06T19:21:08.725Z,98924.96
2018-03-06T19:23:36.399Z,98921.44
2018-03-06T19:26:03.984Z,98920.72
2018-03-06T19:28:31.613Z,98918.25
2018-03-06T19:30:59.210Z,98920.31
2018-03-06T19:33:26.855Z,98913.07
2018-03-06T19:35:55.207Z,98917.17
2018-03-06T19:38:23.758Z,98911.08
2018-03-06T19:40:51.347Z,98909.74
2018-03-06T19:43:18.925Z,98911.30
2018-03-06T19:45:47.300Z,98912.55
2018-03-06T19:48:14.891Z,98911.16
2018-03-06T19:50:43.207Z,98906.91
2018-03-06T19:53:11.609Z,98905.39
2018-03-06T19:55:40.199Z,98901.79
2018-03-06T19:58:07.883Z,98904.10
2018-03-06T20:00:35.453Z,98906.16
2018-03-06T20:03:03.051Z,98903.42
2018-03-06T20:05:30.674Z,98899.17
2018-03-06T20:07:58.287Z,98907.16
2018-03-06T20:10:25.870Z,98904.48
2018-03-06T20:12:53.502Z,98906.27
2018-03-06T20:15:21.987Z,98901.38
2018-03-06T20:17:49.602Z,98905.04
2018-03-06T20:20:17.183Z,98897.05
2018-03-06T20:22:45.672Z,98901.55
2018-03-06T20:25:19.132Z,98898.19
2018-03-06T20:27:46.711Z,98900.20
2018-03-06T20:30:19.999Z,98898.49
2018-03-06T20:32:53.385Z,98905.09
2018-03-06T20:35:21.051Z,98898.55
2018-03-06T20:37:49.585Z,98895.61
2018-03-06T20:40:22.690Z,98891.55
2018-03-06T20:42:51.132Z,98890.52
2018-03-06T20:45:18.900Z,98890.14
2018-03-06T20:47:46.539Z,98898.05
2018-03-06T20:50:14.247Z,98887.31
2018-03-06T20:52:47.618Z,98889.85
2018-03-06T20:55:15.262Z,98887.20
2018-03-06T20:57:42.876Z,98888.67
2018-03-06T21:00:10.486Z,98882.66
2018-03-06T21:02:38.103Z,98880.11
2018-03-06T21:05:05.711Z,98884.12
2018-03-06T21:07:33.375Z,98878.59
2018-03-06T21:10:00.953Z,98882.47
2018-03-06T21:12:28.539Z,98879.13
2018-03-06T21:14:56.138Z,98880.44
2018-03-06T21:17:23.719Z,98880.73
2018-03-06T21:19:51.303Z,98875.84
2018-03-06T21:22:18.889Z,98871.45
2018-03-06T21:24:46.482Z,98876.11
2018-03-06T21:27:14.071Z,98874.06
2018-03-06T21:29:41.667Z,98873.19
2018-03-06T21:32:09.282Z,98868.23
2018-03-06T21:34:36.902Z,98872.05
2018-03-06T21:37:04.518Z,98863.28
2018-03-06T21:39:32.131Z,98868.05
2018-03-06T21:41:59.754Z,98862.12
2018-03-06T21:44:27.353Z,98861.05
2018-03-06T21:46:54.975Z,98858.86
2018-03-06T21:49:23.299Z,98857.16
2018-03-06T21:51:51.961Z,98859.55
2018-03-06T21:54:20.567Z,98855.60
2018-03-06T21:56:48.987Z,98853.51
2018-03-06T21:59:16.577Z,98845.52
2018-03-06T22:01:44.166Z,98849.44
2018-03-06T22:04:11.747Z,98847.52
2018-03-06T22:06:39.327Z,98844.06
2018-03-06T22:09:06.908Z,98845.25
2018-03-06T22:11:34.550Z,98841.72
2018-03-06T22:14:02.249Z,98842.59
2018-03-06T22:16:30.604Z,98841.96
2018-03-06T22:18:58.186Z,98841.97
2018-03-06T22:21:25.827Z,98839.16
2018-03-06T22:23:53.420Z,98839.75
2018-03-06T22:26:21.042Z,98836.23
2018-03-06T22:28:48.619Z,98837.52
2018-03-06T22:31:16.243Z,98836.24
2018-03-06T22:33:43.879Z,98832.64
2018-03-06T22:36:11.471Z,98835.76
2018-03-06T22:38:39.057Z,98835.16
2018-03-06T22:41:06.648Z,98835.42
2018-03-06T22:43:34.230Z,98830.53
2018-03-06T22:46:02.636Z,98829.13
2018-03-06T22:48:30.216Z,98832.64
2018-03-06T22:50:57.842Z,98834.53
2018-03-06T22:53:25.428Z,98831.34
2018-03-06T22:55:53.196Z,98830.92
2018-03-06T22:58:20.780Z,98821.06
2018-03-06T23:00:49.211Z,98831.86
2018-03-06T23:03:17.651Z,98835.27
2018-03-06T23:05:46.070Z,98827.41
2018-03-06T23:08:14.366Z,98831.86
2018-03-06T23:10:42.795Z,98826.09
2018-03-06T23:13:10.435Z,98824.45
2018-03-06T23:15:38.023Z,98823.38
2018-03-06T23:18:05.615Z,98822.59
2018-03-06T23:20:34.128Z,98824.91
2018-03-06T23:23:02.499Z,98825.32
2018-03-06T23:25:30.082Z,98830.62
2018-03-06T23:27:58.587Z,98824.64
2018-03-06T23:30:26.943Z,98819.95
2018-03-06T23:32:54.567Z,98822.64
2018-03-06T23:35:23.078Z,98825.90
2018-03-06T23:37:51.347Z,98821.03
2018-03-06T23:46:00.146Z,98825.15
2018-03-06T23:48:27.691Z,98830.11
2018-03-06T23:50:55.286Z,98824.56
2018-03-06T23:53:22.834Z,98824.56
2018-03-06T23:55:51.186Z,98829.90
2018-03-06T23:58:19.582Z,98819.97
